Time;durP1;ratioP1;P1;durP2;ratioP2;P2;SDS_P1;SDS_P2;PMS_P1;PMS_P2;Temp;Humidity;BMP_temperature;BMP_pressure;BME280_temperature;BME280_humidity;BME280_pressure;Samples;Min_cycle;Max_cycle;Signal;HPM_P1;HPM_P2
2023/02/21 02:14:10;;;;;;;22.47;16.30;;;;;;;;;;5073632;28;20343;-54
2023/02/21 02:16:36;;;;;;;22.17;17.27;;;;;;;;;;5076090;28;20267;-54
2023/02/21 02:19:05;;;;;;;22.40;16.43;;;;;;;;;;5075363;28;20271;-54
2023/02/21 02:21:46;;;;;;;20.47;16.47;;;;;;;;;;5082019;28;20557;-53
2023/02/21 02:24:29;;;;;;;25.23;18.80;;;;;;;;;;5085507;28;20183;-54
2023/02/21 02:27:01;;;;;;;21.70;16.60;;;;;;;;;;5078905;28;20647;-54
2023/02/21 02:29:31;;;;;;;21.90;16.83;;;;;;;;;;5089365;28;20550;-54
2023/02/21 02:31:57;;;;;;;20.50;15.67;;;;;;;;;;5081075;28;20245;-53
2023/02/21 02:34:23;;;;;;;21.43;16.30;;;;;;;;;;5085347;28;20573;-54
2023/02/21 02:37:08;;;;;;;20.80;15.03;;;;;;;;;;5083072;28;20248;-54
2023/02/21 02:39:45;;;;;;;23.50;16.50;;;;;;;;;;5087484;28;20179;-55
2023/02/21 02:42:17;;;;;;;20.87;16.40;;;;;;;;;;5089641;28;20655;-54
2023/02/21 02:44:48;;;;;;;21.33;16.33;;;;;;;;;;5085426;28;20707;-54
2023/02/21 02:47:18;;;;;;;19.27;15.57;;;;;;;;;;5089168;28;20179;-54
2023/02/21 02:49:44;;;;;;;18.67;15.50;;;;;;;;;;5079847;28;20535;-54
2023/02/21 02:55:23;;;;;;;19.90;16.00;;;;;;;;;;5089209;28;20177;-55
2023/02/21 02:57:50;;;;;;;20.07;16.27;;;;;;;;;;5089188;28;20197;-53
2023/02/21 03:00:17;;;;;;;22.27;16.27;;;;;;;;;;5081510;28;20582;-54
2023/02/21 03:02:56;;;;;;;22.17;16.53;;;;;;;;;;5077734;28;20186;-54
2023/02/21 03:05:31;;;;;;;19.07;15.50;;;;;;;;;;5081786;28;20171;-54
2023/02/21 03:08:03;;;;;;;20.40;16.43;;;;;;;;;;5076740;28;20175;-53
2023/02/21 03:10:45;;;;;;;20.03;16.83;;;;;;;;;;5087359;28;20496;-53
2023/02/21 03:13:11;;;;;;;20.23;15.40;;;;;;;;;;5078743;28;20250;-54
2023/02/21 03:15:56;;;;;;;20.80;16.53;;;;;;;;;;5075086;28;20181;-53
2023/02/21 03:18:31;;;;;;;19.07;16.13;;;;;;;;;;5083031;28;20262;-53
2023/02/21 03:20:59;;;;;;;20.27;16.73;;;;;;;;;;5078473;28;20725;-53
2023/02/21 03:23:27;;;;;;;19.67;16.13;;;;;;;;;;5086059;28;20224;-53
2023/02/21 03:25:55;;;;;;;20.60;15.47;;;;;;;;;;5076438;28;20183;-53
2023/02/21 03:28:21;;;;;;;21.50;16.57;;;;;;;;;;5080663;28;20180;-53
2023/02/21 03:30:48;;;;;;;18.93;15.20;;;;;;;;;;5070291;28;20200;-53
2023/02/21 03:33:14;;;;;;;19.03;15.73;;;;;;;;;;5082216;28;20256;-53
2023/02/21 03:35:41;;;;;;;20.63;17.00;;;;;;;;;;5081721;28;20214;-53
2023/02/21 03:38:07;;;;;;;21.63;15.53;;;;;;;;;;5089346;28;20168;-54
2023/02/21 03:40:34;;;;;;;19.77;15.93;;;;;;;;;;5088812;28;20180;-53
2023/02/21 03:43:01;;;;;;;20.87;15.47;;;;;;;;;;5080943;28;20179;-54
2023/02/21 03:45:27;;;;;;;21.93;17.03;;;;;;;;;;5083007;28;20654;-53
2023/02/21 03:47:53;;;;;;;20.63;16.23;;;;;;;;;;5081847;28;20191;-53
2023/02/21 03:50:19;;;;;;;19.30;15.53;;;;;;;;;;5080144;28;20179;-53
2023/02/21 03:52:45;;;;;;;19.33;15.27;;;;;;;;;;5088599;28;20188;-53
2023/02/21 03:55:11;;;;;;;23.47;16.13;;;;;;;;;;5078070;28;20180;-53
2023/02/21 03:57:37;;;;;;;20.17;15.70;;;;;;;;;;5085769;28;20211;-53
2023/02/21 04:00:03;;;;;;;19.27;15.37;;;;;;;;;;5093158;28;20184;-54
2023/02/21 04:02:29;;;;;;;20.63;15.83;;;;;;;;;;5093305;28;20544;-53
2023/02/21 04:04:55;;;;;;;22.27;16.50;;;;;;;;;;5087927;28;20263;-53
2023/02/21 04:07:22;;;;;;;21.67;16.30;;;;;;;;;;5086726;28;20233;-53
2023/02/21 04:09:48;;;;;;;20.87;16.00;;;;;;;;;;5088400;28;20187;-54
2023/02/21 04:12:14;;;;;;;19.33;16.07;;;;;;;;;;5076618;28;20270;-54
2023/02/21 04:14:40;;;;;;;21.93;16.77;;;;;;;;;;5082348;28;20211;-54
2023/02/21 04:17:06;;;;;;;22.53;19.03;;;;;;;;;;5087856;28;20176;-54
2023/02/21 04:19:32;;;;;;;21.10;15.43;;;;;;;;;;5075919;28;21479;-54
2023/02/21 04:21:59;;;;;;;24.23;17.07;;;;;;;;;;5091730;28;20386;-54
2023/02/21 04:24:25;;;;;;;22.47;17.20;;;;;;;;;;5084126;28;20180;-54
2023/02/21 04:26:51;;;;;;;23.57;16.70;;;;;;;;;;5081172;28;20260;-54
2023/02/21 04:29:17;;;;;;;23.07;16.80;;;;;;;;;;5084321;28;20194;-54
2023/02/21 04:31:43;;;;;;;21.30;18.57;;;;;;;;;;5084035;28;20172;-54
2023/02/21 04:34:09;;;;;;;20.63;16.43;;;;;;;;;;5085395;28;20272;-54
2023/02/21 04:36:37;;;;;;;21.47;15.40;;;;;;;;;;5092220;28;20645;-54
2023/02/21 04:39:03;;;;;;;19.80;14.83;;;;;;;;;;5079107;28;20176;-54
2023/02/21 04:41:29;;;;;;;19.70;15.37;;;;;;;;;;5076700;28;20184;-54
2023/02/21 04:43:55;;;;;;;22.40;16.33;;;;;;;;;;5080965;28;20636;-54
2023/02/21 04:46:21;;;;;;;20.60;15.57;;;;;;;;;;5083608;28;20674;-54
2023/02/21 04:48:49;;;;;;;21.40;16.40;;;;;;;;;;5087962;28;20549;-54
2023/02/21 04:51:16;;;;;;;22.90;15.83;;;;;;;;;;5075295;28;20690;-54
2023/02/21 04:53:43;;;;;;;20.20;15.20;;;;;;;;;;5082108;28;20251;-54
2023/02/21 04:56:09;;;;;;;20.47;15.73;;;;;;;;;;5083357;28;20249;-54
2023/02/21 04:58:36;;;;;;;19.50;15.83;;;;;;;;;;5085186;28;20176;-54
2023/02/21 05:01:02;;;;;;;22.40;15.90;;;;;;;;;;5084280;28;20173;-54
2023/02/21 05:03:28;;;;;;;23.37;15.47;;;;;;;;;;5072959;28;20172;-54
2023/02/21 05:05:54;;;;;;;18.83;15.03;;;;;;;;;;5081205;28;20717;-54
2023/02/21 05:08:20;;;;;;;20.90;16.20;;;;;;;;;;5080364;28;20177;-54
2023/02/21 05:10:46;;;;;;;21.27;15.97;;;;;;;;;;5083584;28;20294;-54
2023/02/21 05:13:12;;;;;;;20.00;15.80;;;;;;;;;;5074568;28;20659;-54
2023/02/21 05:15:38;;;;;;;22.80;16.77;;;;;;;;;;5090729;28;20238;-54
2023/02/21 05:18:05;;;;;;;23.57;17.10;;;;;;;;;;5085265;28;20187;-54
2023/02/21 05:20:31;;;;;;;22.43;15.80;;;;;;;;;;5090073;28;20257;-54
2023/02/21 05:22:57;;;;;;;21.80;16.97;;;;;;;;;;5091600;28;20262;-54
2023/02/21 05:25:23;;;;;;;20.13;15.63;;;;;;;;;;5075088;28;20658;-54
2023/02/21 05:27:50;;;;;;;22.37;17.07;;;;;;;;;;5086549;28;20184;-54
2023/02/21 05:30:17;;;;;;;25.13;18.13;;;;;;;;;;5081447;28;20811;-54
2023/02/21 05:32:43;;;;;;;22.20;17.07;;;;;;;;;;5080949;28;20495;-54
2023/02/21 05:35:10;;;;;;;23.83;17.07;;;;;;;;;;5084691;28;20582;-54
2023/02/21 05:37:36;;;;;;;23.17;17.93;;;;;;;;;;5087844;28;20188;-54
2023/02/21 05:40:04;;;;;;;24.33;17.50;;;;;;;;;;5081222;28;20647;-54
2023/02/21 05:42:30;;;;;;;23.57;17.63;;;;;;;;;;5069816;28;20184;-54
2023/02/21 05:44:56;;;;;;;26.67;18.10;;;;;;;;;;5084147;28;20183;-54
2023/02/21 05:47:22;;;;;;;25.10;18.13;;;;;;;;;;5089995;28;20180;-54
2023/02/21 05:49:48;;;;;;;22.73;17.43;;;;;;;;;;5082103;28;20206;-54
2023/02/21 05:52:15;;;;;;;26.97;18.90;;;;;;;;;;5092721;28;20694;-54
2023/02/21 05:54:41;;;;;;;26.87;18.07;;;;;;;;;;5082286;28;20226;-54
2023/02/21 05:57:07;;;;;;;26.27;18.60;;;;;;;;;;5085661;28;20552;-54
2023/02/21 05:59:33;;;;;;;24.27;17.57;;;;;;;;;;5081569;28;20533;-54
2023/02/21 06:01:59;;;;;;;24.77;17.97;;;;;;;;;;5076918;28;20176;-54
2023/02/21 06:04:25;;;;;;;27.07;18.23;;;;;;;;;;5080127;28;20259;-53
2023/02/21 06:06:51;;;;;;;27.33;18.23;;;;;;;;;;5080813;28;20192;-54
2023/02/21 06:09:18;;;;;;;28.93;18.60;;;;;;;;;;5084384;28;20639;-54
2023/02/21 06:11:44;;;;;;;27.00;19.00;;;;;;;;;;5083074;28;20198;-54
2023/02/21 06:14:15;;;;;;;26.50;19.10;;;;;;;;;;5082897;28;20196;-52
2023/02/21 06:16:41;;;;;;;22.93;17.20;;;;;;;;;;5085765;28;20176;-53
2023/02/21 06:19:08;;;;;;;30.20;19.53;;;;;;;;;;5089985;28;20172;-52
2023/02/21 06:21:35;;;;;;;25.17;18.60;;;;;;;;;;5080302;28;20300;-52
2023/02/21 06:24:01;;;;;;;30.52;23.05;;;;;;;;;;5084392;28;20424;-51
2023/02/21 06:26:27;;;;;;;26.47;20.53;;;;;;;;;;5080461;28;20179;-51
2023/02/21 06:28:54;;;;;;;26.87;18.43;;;;;;;;;;5089017;28;20179;-52
2023/02/21 06:31:20;;;;;;;28.37;18.57;;;;;;;;;;5086053;28;20271;-53
2023/02/21 06:33:47;;;;;;;24.73;17.47;;;;;;;;;;5089114;28;20258;-52
2023/02/21 06:36:16;;;;;;;24.30;17.90;;;;;;;;;;5084496;28;20169;-52
2023/02/21 06:38:44;;;;;;;26.43;18.27;;;;;;;;;;5076382;28;20177;-52
2023/02/21 06:41:10;;;;;;;26.30;19.07;;;;;;;;;;5080745;28;20218;-52
2023/02/21 06:43:36;;;;;;;27.07;18.03;;;;;;;;;;5080581;28;20176;-51
2023/02/21 06:46:03;;;;;;;28.87;19.67;;;;;;;;;;5081559;28;20652;-52
2023/02/21 06:48:29;;;;;;;27.47;19.43;;;;;;;;;;5083560;28;20187;-52
2023/02/21 06:50:55;;;;;;;27.07;18.73;;;;;;;;;;5087018;28;20209;-51
2023/02/21 06:53:21;;;;;;;25.50;18.23;;;;;;;;;;5087663;28;20207;-52
2023/02/21 06:55:47;;;;;;;28.77;17.93;;;;;;;;;;5075262;28;20203;-53
2023/02/21 06:58:13;;;;;;;26.97;18.33;;;;;;;;;;5084505;28;20178;-52
2023/02/21 07:00:39;;;;;;;28.13;18.60;;;;;;;;;;5085102;28;20214;-53
2023/02/21 07:03:05;;;;;;;26.07;18.43;;;;;;;;;;5086248;28;20183;-53
2023/02/21 07:05:36;;;;;;;27.03;19.10;;;;;;;;;;5079469;28;20176;-52
2023/02/21 07:08:03;;;;;;;22.97;17.00;;;;;;;;;;5085185;28;20215;-52
2023/02/21 07:10:29;;;;;;;26.47;17.77;;;;;;;;;;5086472;28;20228;-52
2023/02/21 07:12:55;;;;;;;25.40;17.10;;;;;;;;;;5082799;28;20672;-52
2023/02/21 07:15:21;;;;;;;27.87;19.03;;;;;;;;;;5087798;28;20692;-52
2023/02/21 07:17:48;;;;;;;28.37;18.77;;;;;;;;;;5089937;28;20254;-51
2023/02/21 07:20:14;;;;;;;25.60;16.57;;;;;;;;;;5085928;28;21439;-52
2023/02/21 07:22:40;;;;;;;26.37;18.17;;;;;;;;;;5084205;28;20172;-52
2023/02/21 07:25:06;;;;;;;25.10;18.33;;;;;;;;;;5078062;28;20634;-52
2023/02/21 07:27:32;;;;;;;29.13;18.87;;;;;;;;;;5075172;28;20356;-52
2023/02/21 07:29:58;;;;;;;26.80;18.20;;;;;;;;;;5081786;28;20198;-52
2023/02/21 07:32:24;;;;;;;26.87;17.87;;;;;;;;;;5070348;28;20711;-51
2023/02/21 07:34:50;;;;;;;25.10;17.03;;;;;;;;;;5083368;28;20191;-53
2023/02/21 07:37:16;;;;;;;24.03;16.50;;;;;;;;;;5088551;28;20172;-52
2023/02/21 07:39:42;;;;;;;25.50;17.80;;;;;;;;;;5073485;28;20168;-52
2023/02/21 07:42:08;;;;;;;25.27;16.47;;;;;;;;;;5086279;28;20188;-52
2023/02/21 07:44:34;;;;;;;26.23;16.53;;;;;;;;;;5081654;28;20188;-53
2023/02/21 07:47:00;;;;;;;25.30;16.67;;;;;;;;;;5084646;28;20635;-52
2023/02/21 07:49:26;;;;;;;28.93;17.63;;;;;;;;;;5083351;28;20233;-52
2023/02/21 07:51:52;;;;;;;27.43;18.23;;;;;;;;;;5085545;28;20180;-53
2023/02/21 07:54:18;;;;;;;27.17;17.17;;;;;;;;;;5084477;28;20199;-52
2023/02/21 07:56:45;;;;;;;26.77;16.57;;;;;;;;;;5080751;28;20204;-52
2023/02/21 07:59:11;;;;;;;26.47;16.70;;;;;;;;;;5084408;28;20180;-52
2023/02/21 08:01:37;;;;;;;26.23;15.63;;;;;;;;;;5085705;28;20195;-52
2023/02/21 08:04:04;;;;;;;23.13;16.47;;;;;;;;;;5081119;28;20190;-52
2023/02/21 08:06:30;;;;;;;23.97;16.00;;;;;;;;;;5086030;28;20188;-52
2023/02/21 08:08:56;;;;;;;27.90;17.27;;;;;;;;;;5085055;28;20187;-52
2023/02/21 08:11:22;;;;;;;24.27;16.00;;;;;;;;;;5084242;28;20186;-52
2023/02/21 08:13:48;;;;;;;24.30;16.30;;;;;;;;;;5082238;28;20207;-52
2023/02/21 08:16:14;;;;;;;23.37;15.17;;;;;;;;;;5081794;28;20475;-52
2023/02/21 08:18:41;;;;;;;24.07;15.67;;;;;;;;;;5088536;28;20186;-51
2023/02/21 08:21:09;;;;;;;24.77;15.67;;;;;;;;;;5084574;28;20692;-53
2023/02/21 08:23:35;;;;;;;24.17;15.87;;;;;;;;;;5080291;28;20184;-54
2023/02/21 08:26:02;;;;;;;24.73;15.10;;;;;;;;;;5086445;28;20619;-52
2023/02/21 08:28:28;;;;;;;21.93;15.17;;;;;;;;;;5080573;28;20582;-52
2023/02/21 08:30:54;;;;;;;23.37;15.23;;;;;;;;;;5081038;28;20632;-51
2023/02/21 08:33:20;;;;;;;25.20;15.87;;;;;;;;;;5082864;28;20203;-52
2023/02/21 08:35:46;;;;;;;24.40;15.37;;;;;;;;;;5092588;28;20184;-52
2023/02/21 08:38:12;;;;;;;18.37;13.70;;;;;;;;;;5091809;28;20573;-52
2023/02/21 08:40:38;;;;;;;21.47;14.00;;;;;;;;;;5091960;28;20172;-53
2023/02/21 08:43:05;;;;;;;18.93;13.07;;;;;;;;;;5087410;28;20176;-52
2023/02/21 08:45:31;;;;;;;20.83;13.47;;;;;;;;;;5089505;28;20267;-52
2023/02/21 08:47:58;;;;;;;18.77;13.47;;;;;;;;;;5083055;28;20180;-52
2023/02/21 08:50:24;;;;;;;20.70;14.07;;;;;;;;;;5089814;28;20172;-52
2023/02/21 08:52:51;;;;;;;17.13;12.07;;;;;;;;;;5087100;28;20172;-52
2023/02/21 08:55:18;;;;;;;19.07;13.90;;;;;;;;;;5087202;28;20637;-51
2023/02/21 08:57:44;;;;;;;19.50;13.40;;;;;;;;;;5085857;28;20646;-52
2023/02/21 09:00:13;;;;;;;23.00;13.70;;;;;;;;;;5091216;28;20184;-52
2023/02/21 09:02:39;;;;;;;19.30;12.67;;;;;;;;;;5085038;28;20193;-52
2023/02/21 09:05:09;;;;;;;17.03;12.53;;;;;;;;;;5089860;28;20175;-54
2023/02/21 09:07:35;;;;;;;17.53;12.17;;;;;;;;;;5086910;28;20180;-52
2023/02/21 09:10:01;;;;;;;18.70;13.03;;;;;;;;;;5081915;28;20180;-51
2023/02/21 09:12:27;;;;;;;19.97;13.77;;;;;;;;;;5084479;28;20215;-52
2023/02/21 09:14:53;;;;;;;17.97;11.60;;;;;;;;;;5088789;28;20590;-52
2023/02/21 09:17:19;;;;;;;17.27;11.57;;;;;;;;;;5087390;28;20187;-53
2023/02/21 09:19:45;;;;;;;18.33;11.97;;;;;;;;;;5087484;28;20619;-52
2023/02/21 09:22:12;;;;;;;17.60;11.47;;;;;;;;;;5087527;28;20247;-52
2023/02/21 09:24:38;;;;;;;17.40;12.37;;;;;;;;;;5084926;28;20183;-52
2023/02/21 09:27:04;;;;;;;16.90;11.47;;;;;;;;;;5087935;28;20226;-52
2023/02/21 09:29:32;;;;;;;18.17;11.90;;;;;;;;;;5080365;28;20175;-51
2023/02/21 09:31:58;;;;;;;15.50;11.73;;;;;;;;;;5079867;28;20643;-52
2023/02/21 09:34:24;;;;;;;16.20;11.20;;;;;;;;;;5086773;28;20199;-52
2023/02/21 09:36:50;;;;;;;18.30;12.53;;;;;;;;;;5086715;28;20168;-52
2023/02/21 09:39:17;;;;;;;15.17;11.63;;;;;;;;;;5090233;28;20199;-52
2023/02/21 09:41:43;;;;;;;15.30;11.17;;;;;;;;;;5082871;28;20180;-53
2023/02/21 09:44:11;;;;;;;13.17;9.60;;;;;;;;;;5089090;28;20279;-52
2023/02/21 09:46:43;;;;;;;16.17;11.80;;;;;;;;;;5088237;28;20184;-52
2023/02/21 09:49:24;;;;;;;14.07;10.97;;;;;;;;;;5086921;28;20195;-52
2023/02/21 09:51:56;;;;;;;13.43;10.27;;;;;;;;;;5083962;28;20187;-52
2023/02/21 09:54:24;;;;;;;16.20;11.37;;;;;;;;;;5074354;28;20467;-53
2023/02/21 09:56:50;;;;;;;14.27;9.93;;;;;;;;;;5085986;28;20196;-52
2023/02/21 09:59:16;;;;;;;16.07;10.70;;;;;;;;;;5074518;28;20319;-52
2023/02/21 10:01:51;;;;;;;14.63;9.77;;;;;;;;;;5074550;28;20182;-51
2023/02/21 10:04:36;;;;;;;13.13;10.87;;;;;;;;;;5087763;28;20641;-52
2023/02/21 10:07:08;;;;;;;14.00;10.47;;;;;;;;;;5076275;28;20184;-51
2023/02/21 10:09:44;;;;;;;17.70;10.80;;;;;;;;;;5081697;28;20651;-52
2023/02/21 10:12:15;;;;;;;12.17;9.30;;;;;;;;;;5080327;28;20210;-52
2023/02/21 10:14:48;;;;;;;15.93;11.43;;;;;;;;;;5082586;28;20195;-52
2023/02/21 10:17:21;;;;;;;13.03;9.23;;;;;;;;;;5080045;28;20614;-52
2023/02/21 10:19:50;;;;;;;13.77;9.80;;;;;;;;;;5079048;28;20191;-52
2023/02/21 10:22:21;;;;;;;13.40;9.40;;;;;;;;;;5082714;28;20228;-52
2023/02/21 10:24:48;;;;;;;16.13;10.67;;;;;;;;;;5077066;28;20244;-52
2023/02/21 10:27:25;;;;;;;14.57;10.03;;;;;;;;;;5073623;28;20583;-52
2023/02/21 10:30:10;;;;;;;15.33;10.07;;;;;;;;;;5079563;28;20760;-52
2023/02/21 10:32:37;;;;;;;16.90;10.60;;;;;;;;;;5076443;28;20267;-53
2023/02/21 10:35:04;;;;;;;14.63;10.73;;;;;;;;;;5084539;28;20204;-54
2023/02/21 10:37:33;;;;;;;15.03;10.23;;;;;;;;;;5078420;28;20771;-52
2023/02/21 10:40:05;;;;;;;14.43;9.80;;;;;;;;;;5081379;28;20179;-53
2023/02/21 10:42:40;;;;;;;15.07;10.37;;;;;;;;;;5073657;28;20196;-52
2023/02/21 10:45:06;;;;;;;15.53;10.60;;;;;;;;;;5085639;28;20274;-52
2023/02/21 10:47:40;;;;;;;12.33;9.17;;;;;;;;;;5083699;28;20189;-52
2023/02/21 10:50:08;;;;;;;15.63;9.97;;;;;;;;;;5074357;28;20188;-52
2023/02/21 10:52:48;;;;;;;16.07;10.23;;;;;;;;;;5079216;28;20213;-53
2023/02/21 10:55:18;;;;;;;15.33;9.90;;;;;;;;;;5076567;28;20214;-53
2023/02/21 10:57:45;;;;;;;15.57;9.57;;;;;;;;;;5077882;28;20548;-52
2023/02/21 11:00:34;;;;;;;14.77;9.60;;;;;;;;;;5077266;28;20270;-52
2023/02/21 11:03:21;;;;;;;13.90;9.60;;;;;;;;;;5069222;28;20257;-51
2023/02/21 11:06:00;;;;;;;15.00;9.90;;;;;;;;;;5077027;28;20268;-51
2023/02/21 11:08:40;;;;;;;14.53;10.83;;;;;;;;;;5081172;28;20257;-52
2023/02/21 11:11:06;;;;;;;15.97;9.70;;;;;;;;;;5080322;28;20715;-53
2023/02/21 11:13:35;;;;;;;14.80;10.13;;;;;;;;;;5079843;28;20957;-52
2023/02/21 11:16:10;;;;;;;12.23;9.33;;;;;;;;;;5082429;28;20176;-53
2023/02/21 11:18:36;;;;;;;16.87;10.03;;;;;;;;;;5077374;28;20829;-52
2023/02/21 11:21:15;;;;;;;14.57;10.23;;;;;;;;;;5077262;28;20339;-52
2023/02/21 11:24:01;;;;;;;13.37;9.50;;;;;;;;;;5080896;28;20211;-52
2023/02/21 11:26:29;;;;;;;13.53;9.50;;;;;;;;;;5074813;28;20202;-53
2023/02/21 11:28:55;;;;;;;13.07;9.70;;;;;;;;;;5077827;28;20649;-52
2023/02/21 11:31:29;;;;;;;13.57;9.47;;;;;;;;;;5087330;28;20194;-52
2023/02/21 11:33:57;;;;;;;16.10;10.17;;;;;;;;;;5083529;28;20373;-52
2023/02/21 11:36:27;;;;;;;16.20;10.00;;;;;;;;;;5075884;28;20333;-52
2023/02/21 11:39:21;;;;;;;15.83;9.47;;;;;;;;;;5081177;28;20222;-54
2023/02/21 11:41:49;;;;;;;14.63;9.87;;;;;;;;;;5076404;28;20251;-52
2023/02/21 11:44:36;;;;;;;12.47;9.50;;;;;;;;;;5079519;28;20568;-53
2023/02/21 11:47:12;;;;;;;16.03;9.37;;;;;;;;;;5079147;28;20226;-52
2023/02/21 11:49:47;;;;;;;12.77;8.93;;;;;;;;;;5080994;28;20569;-52
2023/02/21 11:52:16;;;;;;;12.20;8.67;;;;;;;;;;5075663;28;20203;-53
2023/02/21 11:54:43;;;;;;;11.43;8.70;;;;;;;;;;5078364;28;20242;-52
2023/02/21 11:57:12;;;;;;;14.03;8.43;;;;;;;;;;5078660;28;20667;-53
2023/02/21 11:59:50;;;;;;;11.30;8.47;;;;;;;;;;5073499;28;20302;-52
2023/02/21 12:02:42;;;;;;;13.63;9.20;;;;;;;;;;5080351;28;20176;-53
2023/02/21 12:05:22;;;;;;;15.67;9.47;;;;;;;;;;5079919;28;20650;-53
2023/02/21 12:08:07;;;;;;;11.37;8.27;;;;;;;;;;5065119;28;20194;-52
2023/02/21 12:10:51;;;;;;;12.20;8.77;;;;;;;;;;5079221;28;20179;-52
2023/02/21 12:13:36;;;;;;;12.93;8.13;;;;;;;;;;5078662;28;20188;-52
2023/02/21 12:16:21;;;;;;;10.13;8.07;;;;;;;;;;5080944;28;20171;-52
2023/02/21 12:18:53;;;;;;;11.40;7.30;;;;;;;;;;5082633;28;20184;-52
2023/02/21 12:21:25;;;;;;;12.23;8.37;;;;;;;;;;5081197;28;20718;-52
2023/02/21 12:23:58;;;;;;;10.03;7.63;;;;;;;;;;5081604;28;20171;-52
2023/02/21 12:26:33;;;;;;;12.13;8.03;;;;;;;;;;5077480;28;20176;-52
2023/02/21 12:29:09;;;;;;;11.63;8.17;;;;;;;;;;5081828;28;20656;-52
2023/02/21 12:31:50;;;;;;;10.10;7.63;;;;;;;;;;5078789;28;20186;-53
2023/02/21 12:34:31;;;;;;;10.03;7.53;;;;;;;;;;5081152;28;20567;-52
2023/02/21 12:37:03;;;;;;;13.93;9.00;;;;;;;;;;5075008;28;20188;-52
2023/02/21 12:39:35;;;;;;;12.47;8.00;;;;;;;;;;5078458;28;20172;-53
2023/02/21 12:42:07;;;;;;;11.83;8.30;;;;;;;;;;5078768;28;20176;-51
2023/02/21 12:44:48;;;;;;;12.50;8.40;;;;;;;;;;5082400;28;20191;-52
2023/02/21 12:47:18;;;;;;;11.00;7.87;;;;;;;;;;5087077;28;20180;-53
2023/02/21 12:49:45;;;;;;;9.77;7.87;;;;;;;;;;5081726;28;20252;-52
2023/02/21 12:52:20;;;;;;;10.40;7.80;;;;;;;;;;5083813;28;20188;-52
2023/02/21 12:54:56;;;;;;;11.27;8.03;;;;;;;;;;5080351;28;20275;-52
2023/02/21 12:57:30;;;;;;;13.63;7.70;;;;;;;;;;5079255;28;20175;-52
2023/02/21 13:00:06;;;;;;;11.93;8.03;;;;;;;;;;5080246;28;20180;-51
2023/02/21 13:02:39;;;;;;;11.80;8.03;;;;;;;;;;5081307;28;20196;-52
2023/02/21 13:05:12;;;;;;;10.60;8.07;;;;;;;;;;5087876;28;20180;-52
2023/02/21 13:07:50;;;;;;;10.07;8.03;;;;;;;;;;5082869;28;20187;-52
2023/02/21 13:10:19;;;;;;;8.90;7.30;;;;;;;;;;5083642;28;20183;-52
2023/02/21 13:12:50;;;;;;;9.40;6.60;;;;;;;;;;5079899;28;20176;-52
2023/02/21 13:15:19;;;;;;;10.10;7.63;;;;;;;;;;5081769;28;20199;-53
2023/02/21 13:17:50;;;;;;;8.40;7.10;;;;;;;;;;5081830;28;20175;-52
2023/02/21 13:20:18;;;;;;;10.10;8.17;;;;;;;;;;5084796;28;20224;-51
2023/02/21 13:26:11;;;;;;;11.10;7.93;;;;;;;;;;5081478;28;20179;-52
2023/02/21 13:28:38;;;;;;;10.53;8.13;;;;;;;;;;5042557;28;20193;-53
2023/02/21 13:31:05;;;;;;;10.70;8.77;;;;;;;;;;5080279;28;20180;-52
2023/02/21 13:33:43;;;;;;;11.63;9.10;;;;;;;;;;5082605;28;20864;-52
2023/02/21 13:36:35;;;;;;;14.17;9.30;;;;;;;;;;5079736;28;20631;-52
2023/02/21 13:39:01;;;;;;;10.57;8.50;;;;;;;;;;5074456;28;20188;-52
2023/02/21 13:41:28;;;;;;;14.27;9.00;;;;;;;;;;5082068;28;20366;-53
2023/02/21 13:43:55;;;;;;;11.73;8.53;;;;;;;;;;5080770;28;20670;-52
2023/02/21 13:46:30;;;;;;;10.30;8.00;;;;;;;;;;5080356;28;20184;-52
2023/02/21 13:49:15;;;;;;;13.13;8.87;;;;;;;;;;5078853;28;20202;-52
2023/02/21 13:51:46;;;;;;;12.03;8.77;;;;;;;;;;5081052;28;20577;-52
2023/02/21 13:54:12;;;;;;;11.63;9.23;;;;;;;;;;5081922;28;20558;-52
2023/02/21 13:56:47;;;;;;;10.83;8.53;;;;;;;;;;5081717;28;20794;-52
2023/02/21 13:59:33;;;;;;;10.03;8.43;;;;;;;;;;5084345;28;20183;-52
2023/02/21 14:02:17;;;;;;;11.57;8.67;;;;;;;;;;5080965;28;20176;-53
2023/02/21 14:04:58;;;;;;;10.57;8.63;;;;;;;;;;5078043;28;20183;-52
2023/02/21 14:07:43;;;;;;;13.67;9.27;;;;;;;;;;5078212;28;20271;-52
2023/02/21 14:10:19;;;;;;;13.10;9.23;;;;;;;;;;5079429;28;20187;-52
2023/02/21 14:12:50;;;;;;;12.03;8.97;;;;;;;;;;5079889;28;20179;-52
2023/02/21 14:15:17;;;;;;;11.67;9.33;;;;;;;;;;5083720;28;20218;-53
2023/02/21 14:17:47;;;;;;;11.33;8.30;;;;;;;;;;5086067;28;20191;-53
2023/02/21 14:20:19;;;;;;;12.13;9.03;;;;;;;;;;5076445;28;20671;-53
2023/02/21 14:22:45;;;;;;;10.50;8.50;;;;;;;;;;5081482;28;20221;-52
2023/02/21 14:25:19;;;;;;;10.23;7.70;;;;;;;;;;5082341;28;20229;-52
2023/02/21 14:27:47;;;;;;;11.57;8.80;;;;;;;;;;5080174;28;20203;-52
2023/02/21 14:30:13;;;;;;;9.37;7.67;;;;;;;;;;5078843;28;20188;-53
2023/02/21 14:32:46;;;;;;;10.27;8.47;;;;;;;;;;5083228;28;20176;-53
2023/02/21 14:35:31;;;;;;;10.30;8.50;;;;;;;;;;5080442;28;20719;-53
2023/02/21 14:37:57;;;;;;;9.03;7.63;;;;;;;;;;5078962;28;20225;-52
2023/02/21 14:40:34;;;;;;;11.10;8.30;;;;;;;;;;5080758;28;20553;-53
2023/02/21 14:43:22;;;;;;;9.33;8.03;;;;;;;;;;5077447;28;20172;-51
2023/02/21 14:46:06;;;;;;;10.93;9.53;;;;;;;;;;5082850;28;20184;-53
2023/02/21 14:48:50;;;;;;;11.93;8.00;;;;;;;;;;5081616;28;22116;-52
2023/02/21 14:51:33;;;;;;;10.67;8.50;;;;;;;;;;5077402;28;20777;-52
2023/02/21 14:54:18;;;;;;;9.07;8.03;;;;;;;;;;5079295;28;20291;-52
2023/02/21 14:57:07;;;;;;;8.53;6.80;;;;;;;;;;5083208;28;20236;-52
2023/02/21 14:59:39;;;;;;;10.37;8.80;;;;;;;;;;5069862;28;20184;-52
2023/02/21 15:02:17;;;;;;;9.13;7.60;;;;;;;;;;5085583;28;20930;-51
2023/02/21 15:05:02;;;;;;;10.23;8.40;;;;;;;;;;5079098;28;20219;-51
2023/02/21 15:07:28;;;;;;;9.30;7.67;;;;;;;;;;5077593;28;20961;-53
2023/02/21 15:10:26;;;;;;;9.43;8.07;;;;;;;;;;5083943;28;20662;-52
2023/02/21 15:12:54;;;;;;;10.73;8.38;;;;;;;;;;5039643;28;20433;-51
2023/02/21 15:15:32;;;;;;;10.00;8.33;;;;;;;;;;5078820;28;20219;-51
2023/02/21 15:18:08;;;;;;;9.33;7.30;;;;;;;;;;5076126;28;21918;-52
2023/02/21 15:20:38;;;;;;;9.63;7.40;;;;;;;;;;5082689;28;20694;-51
2023/02/21 15:23:04;;;;;;;9.07;7.40;;;;;;;;;;5084731;28;20195;-53
2023/02/21 15:25:31;;;;;;;9.57;8.40;;;;;;;;;;5075319;28;20565;-53
2023/02/21 15:27:58;;;;;;;8.77;7.57;;;;;;;;;;5081382;28;20186;-52
2023/02/21 15:30:29;;;;;;;8.67;7.70;;;;;;;;;;5084308;28;20973;-52
2023/02/21 15:33:15;;;;;;;9.27;7.77;;;;;;;;;;5080881;28;20179;-52
2023/02/21 15:35:50;;;;;;;10.00;8.57;;;;;;;;;;5080403;28;20220;-52
2023/02/21 15:38:27;;;;;;;11.40;8.83;;;;;;;;;;5082332;28;20510;-52
2023/02/21 15:40:56;;;;;;;11.70;8.60;;;;;;;;;;5080302;28;20179;-52
2023/02/21 15:43:42;;;;;;;10.00;8.40;;;;;;;;;;5079235;28;20646;-51
2023/02/21 15:46:11;;;;;;;18.87;9.07;;;;;;;;;;5076256;28;20176;-53
2023/02/21 15:48:37;;;;;;;12.33;8.93;;;;;;;;;;5083349;28;20600;-51
2023/02/21 15:51:05;;;;;;;11.83;8.77;;;;;;;;;;5085251;28;20642;-52
2023/02/21 15:53:31;;;;;;;11.70;8.77;;;;;;;;;;5083741;28;20569;-51
2023/02/21 15:56:15;;;;;;;10.33;8.33;;;;;;;;;;5086302;28;20701;-51
2023/02/21 15:58:41;;;;;;;10.63;7.67;;;;;;;;;;5081987;28;20268;-51
2023/02/21 16:01:09;;;;;;;11.20;8.83;;;;;;;;;;5082624;28;20187;-52
2023/02/21 16:03:39;;;;;;;12.37;8.50;;;;;;;;;;5080838;28;20275;-51
2023/02/21 16:06:08;;;;;;;11.80;8.90;;;;;;;;;;5082046;28;20179;-53
2023/02/21 16:08:34;;;;;;;9.87;8.10;;;;;;;;;;5081225;28;20715;-51
2023/02/21 16:11:03;;;;;;;12.30;8.90;;;;;;;;;;5081726;28;20647;-52
2023/02/21 16:13:39;;;;;;;11.90;9.30;;;;;;;;;;5081906;28;20188;-52
2023/02/21 16:16:06;;;;;;;11.57;8.50;;;;;;;;;;5062309;28;20832;-52
2023/02/21 16:18:32;;;;;;;11.40;9.03;;;;;;;;;;5082664;28;20184;-52
2023/02/21 16:20:59;;;;;;;10.53;8.23;;;;;;;;;;5088376;28;20226;-51
2023/02/21 16:23:30;;;;;;;11.63;8.57;;;;;;;;;;5084051;28;20172;-51
2023/02/21 16:25:57;;;;;;;11.93;8.67;;;;;;;;;;5082274;28;20175;-52
2023/02/21 16:28:24;;;;;;;11.77;8.33;;;;;;;;;;5080911;28;20688;-51
2023/02/21 16:30:50;;;;;;;12.77;8.30;;;;;;;;;;5064977;28;20177;-51
2023/02/21 16:33:16;;;;;;;11.10;9.00;;;;;;;;;;5079400;28;20172;-51
2023/02/21 16:35:42;;;;;;;11.87;9.03;;;;;;;;;;5077222;28;20626;-52
2023/02/21 16:38:18;;;;;;;11.77;8.67;;;;;;;;;;5081450;28;20183;-52
2023/02/21 16:40:44;;;;;;;10.97;8.03;;;;;;;;;;5081536;28;20183;-52
2023/02/21 16:43:16;;;;;;;13.03;9.30;;;;;;;;;;5082871;28;20179;-51
2023/02/21 16:45:42;;;;;;;11.60;8.20;;;;;;;;;;5081921;28;20233;-52
2023/02/21 16:48:14;;;;;;;11.17;9.10;;;;;;;;;;5084921;28;20184;-52
2023/02/21 16:50:40;;;;;;;11.33;8.90;;;;;;;;;;5081376;28;20267;-52
2023/02/21 16:53:11;;;;;;;11.23;8.77;;;;;;;;;;5084471;28;20655;-52
2023/02/21 16:55:37;;;;;;;12.63;8.77;;;;;;;;;;5079931;28;20211;-51
2023/02/21 16:58:08;;;;;;;11.27;7.83;;;;;;;;;;5080233;28;20180;-52
2023/02/21 17:00:34;;;;;;;12.47;8.83;;;;;;;;;;5080539;28;20176;-52